sensor_id;sensor_type;location;lat;lon;timestamp;pressure;altitude;pressure_sealevel;temperature;humidity
27984;BME280;15317;50.360;8.726;2023-02-10T00:00:40;101318.97;;;-3.72;100.00
27984;BME280;15317;50.360;8.726;2023-02-10T00:04:42;101325.16;;;-3.73;100.00
27984;BME280;15317;50.360;8.726;2023-02-10T00:08:46;101328.75;;;-3.76;100.00
27984;BME280;15317;50.360;8.726;2023-02-10T00:12:49;101326.13;;;-3.77;100.00
27984;BME280;15317;50.360;8.726;2023-02-10T00:16:52;101337.63;;;-3.77;100.00
27984;BME280;15317;50.360;8.726;2023-02-10T00:20:55;101337.63;;;-3.77;100.00
27984;BME280;15317;50.360;8.726;2023-02-10T00:24:57;101342.06;;;-3.77;100.00
27984;BME280;15317;50.360;8.726;2023-02-10T00:29:00;101348.25;;;-3.77;100.00
27984;BME280;15317;50.360;8.726;2023-02-10T00:33:02;101358.91;;;-3.81;100.00
27984;BME280;15317;50.360;8.726;2023-02-10T00:37:04;101360.75;;;-3.83;100.00
27984;BME280;15317;50.360;8.726;2023-02-10T00:41:08;101374.03;;;-3.85;100.00
27984;BME280;15317;50.360;8.726;2023-02-10T00:45:11;101366.09;;;-3.88;100.00
27984;BME280;15317;50.360;8.726;2023-02-10T00:49:13;101376.78;;;-3.91;100.00
27984;BME280;15317;50.360;8.726;2023-02-10T00:53:15;101373.28;;;-3.93;100.00
27984;BME280;15317;50.360;8.726;2023-02-10T00:57:17;101371.53;;;-3.95;100.00
27984;BME280;15317;50.360;8.726;2023-02-10T01:01:21;101373.34;;;-3.97;100.00
27984;BME280;15317;50.360;8.726;2023-02-10T01:05:23;101379.53;;;-3.97;100.00
27984;BME280;15317;50.360;8.726;2023-02-10T01:09:25;101382.13;;;-3.92;100.00
27984;BME280;15317;50.360;8.726;2023-02-10T01:13:27;101376.69;;;-3.85;100.00
27984;BME280;15317;50.360;8.726;2023-02-10T01:17:31;101381.03;;;-3.79;100.00
27984;BME280;15317;50.360;8.726;2023-02-10T01:21:33;101380.03;;;-3.74;100.00
27984;BME280;15317;50.360;8.726;2023-02-10T01:25:37;101389.72;;;-3.70;100.00
27984;BME280;15317;50.360;8.726;2023-02-10T01:29:40;101381.66;;;-3.64;100.00
27984;BME280;15317;50.360;8.726;2023-02-10T01:33:43;101389.53;;;-3.58;100.00
27984;BME280;15317;50.360;8.726;2023-02-10T01:37:45;101399.16;;;-3.50;100.00
27984;BME280;15317;50.360;8.726;2023-02-10T01:41:47;101402.56;;;-3.42;100.00
27984;BME280;15317;50.360;8.726;2023-02-10T01:45:49;101400.69;;;-3.37;100.00
27984;BME280;15317;50.360;8.726;2023-02-10T01:49:52;101410.25;;;-3.26;100.00
27984;BME280;15317;50.360;8.726;2023-02-10T01:53:54;101400.38;;;-3.19;100.00
27984;BME280;15317;50.360;8.726;2023-02-10T01:57:57;101405.56;;;-3.13;100.00
27984;BME280;15317;50.360;8.726;2023-02-10T02:01:59;101412.63;;;-3.09;100.00
27984;BME280;15317;50.360;8.726;2023-02-10T02:06:08;101408.06;;;-3.02;100.00
27984;BME280;15317;50.360;8.726;2023-02-10T02:10:11;101413.28;;;-2.98;100.00
27984;BME280;15317;50.360;8.726;2023-02-10T02:14:24;101415.84;;;-2.93;100.00
27984;BME280;15317;50.360;8.726;2023-02-10T02:18:36;101422.97;;;-2.94;100.00
27984;BME280;15317;50.360;8.726;2023-02-10T02:22:52;101420.31;;;-2.94;100.00
27984;BME280;15317;50.360;8.726;2023-02-10T02:27:12;101430.00;;;-2.91;100.00
27984;BME280;15317;50.360;8.726;2023-02-10T02:31:40;101434.41;;;-2.90;100.00
27984;BME280;15317;50.360;8.726;2023-02-10T02:35:49;101437.06;;;-2.89;100.00
27984;BME280;15317;50.360;8.726;2023-02-10T02:39:53;101427.22;;;-2.85;100.00
27984;BME280;15317;50.360;8.726;2023-02-10T02:43:57;101433.50;;;-2.88;100.00
27984;BME280;15317;50.360;8.726;2023-02-10T02:48:14;101441.38;;;-2.83;100.00
27984;BME280;15317;50.360;8.726;2023-02-10T02:52:23;101424.53;;;-2.82;100.00
27984;BME280;15317;50.360;8.726;2023-02-10T02:56:32;101428.00;;;-2.79;100.00
27984;BME280;15317;50.360;8.726;2023-02-10T03:00:38;101431.56;;;-2.80;100.00
27984;BME280;15317;50.360;8.726;2023-02-10T03:04:44;101424.41;;;-2.76;100.00
27984;BME280;15317;50.360;8.726;2023-02-10T03:08:46;101420.81;;;-2.73;100.00
27984;BME280;15317;50.360;8.726;2023-02-10T03:12:48;101417.19;;;-2.69;100.00
27984;BME280;15317;50.360;8.726;2023-02-10T03:16:52;101420.63;;;-2.64;100.00
27984;BME280;15317;50.360;8.726;2023-02-10T03:20:55;101425.00;;;-2.60;100.00
27984;BME280;15317;50.360;8.726;2023-02-10T03:24:57;101415.13;;;-2.55;100.00
27984;BME280;15317;50.360;8.726;2023-02-10T03:28:59;101418.69;;;-2.56;100.00
27984;BME280;15317;50.360;8.726;2023-02-10T03:33:01;101429.28;;;-2.53;100.00
27984;BME280;15317;50.360;8.726;2023-02-10T03:37:04;101426.53;;;-2.49;100.00
27984;BME280;15317;50.360;8.726;2023-02-10T03:41:06;101423.84;;;-2.47;100.00
27984;BME280;15317;50.360;8.726;2023-02-10T03:45:08;101437.06;;;-2.44;100.00
27984;BME280;15317;50.360;8.726;2023-02-10T03:49:10;101431.69;;;-2.41;100.00
27984;BME280;15317;50.360;8.726;2023-02-10T03:53:14;101430.84;;;-2.43;100.00
27984;BME280;15317;50.360;8.726;2023-02-10T03:57:16;101439.69;;;-2.43;100.00
27984;BME280;15317;50.360;8.726;2023-02-10T04:01:19;101442.34;;;-2.41;100.00
27984;BME280;15317;50.360;8.726;2023-02-10T04:05:21;101446.75;;;-2.40;100.00
27984;BME280;15317;50.360;8.726;2023-02-10T04:09:24;101452.09;;;-2.40;100.00
27984;BME280;15317;50.360;8.726;2023-02-10T04:13:26;101458.22;;;-2.38;100.00
27984;BME280;15317;50.360;8.726;2023-02-10T04:17:28;101465.19;;;-2.31;100.00
27984;BME280;15317;50.360;8.726;2023-02-10T04:21:30;101475.16;;;-2.41;100.00
27984;BME280;15317;50.360;8.726;2023-02-10T04:25:34;101471.63;;;-2.41;100.00
27984;BME280;15317;50.360;8.726;2023-02-10T04:29:35;101478.63;;;-2.37;100.00
27984;BME280;15317;50.360;8.726;2023-02-10T04:33:40;101482.13;;;-2.33;100.00
27984;BME280;15317;50.360;8.726;2023-02-10T04:37:42;101493.56;;;-2.30;100.00
27984;BME280;15317;50.360;8.726;2023-02-10T04:41:45;101492.72;;;-2.32;100.00
27984;BME280;15317;50.360;8.726;2023-02-10T04:45:47;101486.59;;;-2.35;100.00
27984;BME280;15317;50.360;8.726;2023-02-10T04:49:49;101494.47;;;-2.31;100.00
27984;BME280;15317;50.360;8.726;2023-02-10T04:53:51;101496.25;;;-2.31;100.00
27984;BME280;15317;50.360;8.726;2023-02-10T04:57:54;101497.06;;;-2.28;100.00
27984;BME280;15317;50.360;8.726;2023-02-10T05:01:56;101497.09;;;-2.29;100.00
27984;BME280;15317;50.360;8.726;2023-02-10T05:05:58;101492.63;;;-2.26;100.00
27984;BME280;15317;50.360;8.726;2023-02-10T05:10:00;101489.88;;;-2.23;100.00
27984;BME280;15317;50.360;8.726;2023-02-10T05:14:04;101492.50;;;-2.20;100.00
27984;BME280;15317;50.360;8.726;2023-02-10T05:18:07;101484.44;;;-2.18;100.00
27984;BME280;15317;50.360;8.726;2023-02-10T05:22:09;101491.50;;;-2.16;100.00
27984;BME280;15317;50.360;8.726;2023-02-10T05:26:11;101487.03;;;-2.14;100.00
27984;BME280;15317;50.360;8.726;2023-02-10T05:30:14;101499.50;;;-2.16;100.00
27984;BME280;15317;50.360;8.726;2023-02-10T05:34:16;101492.28;;;-2.11;100.00
27984;BME280;15317;50.360;8.726;2023-02-10T05:38:18;101495.81;;;-2.10;100.00
27984;BME280;15317;50.360;8.726;2023-02-10T05:42:20;101486.03;;;-2.08;100.00
27984;BME280;15317;50.360;8.726;2023-02-10T05:46:23;101492.22;;;-2.08;100.00
27984;BME280;15317;50.360;8.726;2023-02-10T05:50:25;101488.72;;;-2.10;100.00
27984;BME280;15317;50.360;8.726;2023-02-10T05:54:27;101487.78;;;-2.07;100.00
27984;BME280;15317;50.360;8.726;2023-02-10T05:58:30;101487.88;;;-2.12;100.00
27984;BME280;15317;50.360;8.726;2023-02-10T06:02:34;101495.91;;;-2.13;100.00
27984;BME280;15317;50.360;8.726;2023-02-10T06:06:36;101494.03;;;-2.10;100.00
27984;BME280;15317;50.360;8.726;2023-02-10T06:10:38;101494.00;;;-2.08;100.00
27984;BME280;15317;50.360;8.726;2023-02-10T06:14:40;101498.44;;;-2.07;100.00
27984;BME280;15317;50.360;8.726;2023-02-10T06:18:43;101492.22;;;-2.08;100.00
27984;BME280;15317;50.360;8.726;2023-02-10T06:22:48;101503.69;;;-2.04;100.00
27984;BME280;15317;50.360;8.726;2023-02-10T06:26:50;101497.56;;;-2.08;100.00
27984;BME280;15317;50.360;8.726;2023-02-10T06:30:52;101495.75;;;-2.06;100.00
27984;BME280;15317;50.360;8.726;2023-02-10T06:34:55;101506.44;;;-2.09;100.00
27984;BME280;15317;50.360;8.726;2023-02-10T06:38:57;101503.78;;;-2.09;100.00
27984;BME280;15317;50.360;8.726;2023-02-10T06:42:59;101521.53;;;-2.09;100.00
27984;BME280;15317;50.360;8.726;2023-02-10T06:47:02;101526.94;;;-2.12;100.00
27984;BME280;15317;50.360;8.726;2023-02-10T06:51:06;101527.75;;;-2.09;100.00
27984;BME280;15317;50.360;8.726;2023-02-10T06:55:08;101537.50;;;-2.08;100.00
27984;BME280;15317;50.360;8.726;2023-02-10T06:59:10;101538.41;;;-2.09;100.00
27984;BME280;15317;50.360;8.726;2023-02-10T07:03:13;101540.13;;;-2.06;100.00
27984;BME280;15317;50.360;8.726;2023-02-10T07:07:16;101529.44;;;-2.05;100.00
27984;BME280;15317;50.360;8.726;2023-02-10T07:11:18;101541.94;;;-2.08;100.00
27984;BME280;15317;50.360;8.726;2023-02-10T07:15:20;101546.28;;;-2.04;100.00
27984;BME280;15317;50.360;8.726;2023-02-10T07:19:23;101544.56;;;-2.07;100.00
27984;BME280;15317;50.360;8.726;2023-02-10T07:23:26;101551.50;;;-1.98;100.00
27984;BME280;15317;50.360;8.726;2023-02-10T07:27:28;101557.63;;;-1.94;100.00
27984;BME280;15317;50.360;8.726;2023-02-10T07:31:30;101563.69;;;-1.86;100.00
27984;BME280;15317;50.360;8.726;2023-02-10T07:35:35;101568.91;;;-1.82;100.00
27984;BME280;15317;50.360;8.726;2023-02-10T07:39:38;101573.06;;;-1.67;100.00
27984;BME280;15317;50.360;8.726;2023-02-10T07:43:40;101580.91;;;-1.60;100.00
27984;BME280;15317;50.360;8.726;2023-02-10T07:47:42;101583.41;;;-1.53;100.00
27984;BME280;15317;50.360;8.726;2023-02-10T07:51:44;101583.25;;;-1.46;100.00
27984;BME280;15317;50.360;8.726;2023-02-10T07:55:48;101593.78;;;-1.40;100.00
27984;BME280;15317;50.360;8.726;2023-02-10T07:59:50;101581.44;;;-1.44;100.00
27984;BME280;15317;50.360;8.726;2023-02-10T08:03:52;101590.28;;;-1.42;100.00
27984;BME280;15317;50.360;8.726;2023-02-10T08:07:55;101591.97;;;-1.38;100.00
27984;BME280;15317;50.360;8.726;2023-02-10T08:11:59;101593.94;;;-1.46;100.00
27984;BME280;15317;50.360;8.726;2023-02-10T08:16:03;101601.16;;;-1.51;100.00
27984;BME280;15317;50.360;8.726;2023-02-10T08:20:06;101602.03;;;-1.50;100.00
27984;BME280;15317;50.360;8.726;2023-02-10T08:24:08;101602.81;;;-1.47;100.00
27984;BME280;15317;50.360;8.726;2023-02-10T08:28:11;101596.31;;;-1.34;100.00
27984;BME280;15317;50.360;8.726;2023-02-10T08:32:13;101607.28;;;-1.07;100.00
27984;BME280;15317;50.360;8.726;2023-02-10T08:36:20;101606.03;;;-0.93;100.00
27984;BME280;15317;50.360;8.726;2023-02-10T08:40:23;101608.53;;;-0.85;100.00
27984;BME280;15317;50.360;8.726;2023-02-10T08:44:26;101613.22;;;-0.58;100.00
27984;BME280;15317;50.360;8.726;2023-02-10T08:48:28;101609.69;;;-0.60;100.00
27984;BME280;15317;50.360;8.726;2023-02-10T08:52:31;101620.38;;;-0.60;100.00
27984;BME280;15317;50.360;8.726;2023-02-10T08:56:33;101619.31;;;-0.53;100.00
27984;BME280;15317;50.360;8.726;2023-02-10T09:00:37;101621.44;;;-0.31;100.00
27984;BME280;15317;50.360;8.726;2023-02-10T09:04:39;101627.47;;;-0.23;100.00
27984;BME280;15317;50.360;8.726;2023-02-10T09:08:42;101618.91;;;-0.04;100.00
27984;BME280;15317;50.360;8.726;2023-02-10T09:12:44;101623.50;;;-0.09;100.00
27984;BME280;15317;50.360;8.726;2023-02-10T09:16:48;101623.66;;;0.19;100.00
27984;BME280;15317;50.360;8.726;2023-02-10T09:20:52;101626.03;;;0.61;100.00
27984;BME280;15317;50.360;8.726;2023-02-10T09:24:54;101618.53;;;0.72;99.46
27984;BME280;15317;50.360;8.726;2023-02-10T09:28:56;101623.75;;;1.06;99.17
27984;BME280;15317;50.360;8.726;2023-02-10T09:33:00;101628.13;;;0.79;98.23
27984;BME280;15317;50.360;8.726;2023-02-10T09:37:03;101627.41;;;0.74;99.24
27984;BME280;15317;50.360;8.726;2023-02-10T09:41:12;101632.94;;;0.68;100.00
27984;BME280;15317;50.360;8.726;2023-02-10T09:45:22;101626.84;;;0.92;99.56
27984;BME280;15317;50.360;8.726;2023-02-10T09:49:39;101629.28;;;1.00;98.90
27984;BME280;15317;50.360;8.726;2023-02-10T09:53:45;101634.72;;;1.25;97.55
27984;BME280;15317;50.360;8.726;2023-02-10T09:57:50;101638.41;;;1.76;94.81
27984;BME280;15317;50.360;8.726;2023-02-10T10:01:56;101641.06;;;1.50;94.32
27984;BME280;15317;50.360;8.726;2023-02-10T10:06:09;101650.47;;;1.35;95.27
27984;BME280;15317;50.360;8.726;2023-02-10T10:10:17;101645.03;;;1.37;95.05
27984;BME280;15317;50.360;8.726;2023-02-10T10:14:24;101643.13;;;1.42;95.63
27984;BME280;15317;50.360;8.726;2023-02-10T10:18:33;101642.13;;;1.44;95.78
27984;BME280;15317;50.360;8.726;2023-02-10T10:22:51;101654.50;;;1.21;96.90
27984;BME280;15317;50.360;8.726;2023-02-10T10:27:01;101656.94;;;1.00;99.61
27984;BME280;15317;50.360;8.726;2023-02-10T10:31:08;101652.75;;;1.19;98.91
27984;BME280;15317;50.360;8.726;2023-02-10T10:35:16;101657.03;;;1.25;98.82
27984;BME280;15317;50.360;8.726;2023-02-10T10:39:26;101657.03;;;1.25;99.49
27984;BME280;15317;50.360;8.726;2023-02-10T10:43:31;101656.09;;;1.26;99.23
27984;BME280;15317;50.360;8.726;2023-02-10T10:47:39;101653.78;;;1.15;99.99
27984;BME280;15317;50.360;8.726;2023-02-10T10:51:43;101650.91;;;1.22;100.00
27984;BME280;15317;50.360;8.726;2023-02-10T10:55:51;101648.13;;;1.25;100.00
27984;BME280;15317;50.360;8.726;2023-02-10T10:59:58;101638.25;;;1.27;100.00
27984;BME280;15317;50.360;8.726;2023-02-10T11:04:11;101632.50;;;1.39;100.00
27984;BME280;15317;50.360;8.726;2023-02-10T11:08:22;101628.41;;;1.27;99.43
27984;BME280;15317;50.360;8.726;2023-02-10T11:12:31;101622.09;;;1.30;100.00
27984;BME280;15317;50.360;8.726;2023-02-10T11:16:40;101622.56;;;1.42;100.00
27984;BME280;15317;50.360;8.726;2023-02-10T11:20:52;101621.75;;;1.40;100.00
27984;BME280;15317;50.360;8.726;2023-02-10T11:24:56;101607.56;;;1.37;100.00
27984;BME280;15317;50.360;8.726;2023-02-10T11:29:08;101613.94;;;1.33;100.00
27984;BME280;15317;50.360;8.726;2023-02-10T11:33:19;101610.34;;;1.34;100.00
27984;BME280;15317;50.360;8.726;2023-02-10T11:37:26;101598.31;;;1.47;100.00
27984;BME280;15317;50.360;8.726;2023-02-10T11:41:29;101597.53;;;1.43;100.00
27984;BME280;15317;50.360;8.726;2023-02-10T11:45:33;101596.00;;;1.63;100.00
27984;BME280;15317;50.360;8.726;2023-02-10T11:49:35;101592.25;;;1.68;99.97
27984;BME280;15317;50.360;8.726;2023-02-10T11:53:38;101598.00;;;1.82;99.66
27984;BME280;15317;50.360;8.726;2023-02-10T11:57:46;101601.81;;;1.75;99.58
27984;BME280;15317;50.360;8.726;2023-02-10T12:02:16;101596.41;;;2.02;98.75
27984;BME280;15317;50.360;8.726;2023-02-10T12:06:24;101599.06;;;2.26;98.38
27984;BME280;15317;50.360;8.726;2023-02-10T12:10:32;101596.31;;;2.29;97.86
27984;BME280;15317;50.360;8.726;2023-02-10T12:14:45;101582.63;;;2.37;97.14
27984;BME280;15317;50.360;8.726;2023-02-10T12:18:58;101567.81;;;2.50;97.04
27984;BME280;15317;50.360;8.726;2023-02-10T12:23:11;101572.50;;;2.67;95.51
27984;BME280;15317;50.360;8.726;2023-02-10T12:27:20;101570.25;;;2.80;95.45
27984;BME280;15317;50.360;8.726;2023-02-10T12:31:34;101576.88;;;2.93;93.92
27984;BME280;15317;50.360;8.726;2023-02-10T12:35:48;101564.00;;;3.23;93.23
27984;BME280;15317;50.360;8.726;2023-02-10T12:40:07;101551.16;;;3.31;92.36
27984;BME280;15317;50.360;8.726;2023-02-10T12:44:26;101550.97;;;3.55;90.06
27984;BME280;15317;50.360;8.726;2023-02-10T12:48:33;101549.50;;;3.48;91.61
27984;BME280;15317;50.360;8.726;2023-02-10T12:52:42;101546.44;;;3.57;91.67
27984;BME280;15317;50.360;8.726;2023-02-10T12:56:48;101545.19;;;3.44;91.83
27984;BME280;15317;50.360;8.726;2023-02-10T13:00:55;101536.88;;;3.50;94.07
27984;BME280;15317;50.360;8.726;2023-02-10T13:05:04;101542.25;;;3.50;92.89
27984;BME280;15317;50.360;8.726;2023-02-10T13:09:13;101542.41;;;3.47;94.62
27984;BME280;15317;50.360;8.726;2023-02-10T13:13:19;101543.34;;;3.67;94.77
27984;BME280;15317;50.360;8.726;2023-02-10T13:17:23;101547.00;;;3.86;93.13
27984;BME280;15317;50.360;8.726;2023-02-10T13:21:29;101533.88;;;3.98;92.42
27984;BME280;15317;50.360;8.726;2023-02-10T13:25:46;101536.09;;;4.09;90.92
27984;BME280;15317;50.360;8.726;2023-02-10T13:29:59;101544.03;;;4.31;90.83
27984;BME280;15317;50.360;8.726;2023-02-10T13:34:15;101546.88;;;4.28;89.35
27984;BME280;15317;50.360;8.726;2023-02-10T13:38:19;101528.84;;;4.30;89.08
27984;BME280;15317;50.360;8.726;2023-02-10T13:42:27;101546.13;;;4.24;89.02
27984;BME280;15317;50.360;8.726;2023-02-10T13:46:30;101534.38;;;4.27;89.28
27984;BME280;15317;50.360;8.726;2023-02-10T13:50:42;101528.13;;;4.45;88.94
27984;BME280;15317;50.360;8.726;2023-02-10T13:54:56;101529.00;;;4.27;89.07
27984;BME280;15317;50.360;8.726;2023-02-10T13:59:02;101527.13;;;4.29;89.91
27984;BME280;15317;50.360;8.726;2023-02-10T14:03:19;101526.09;;;4.31;89.06
27984;BME280;15317;50.360;8.726;2023-02-10T14:07:33;101527.75;;;4.15;88.47
27984;BME280;15317;50.360;8.726;2023-02-10T14:11:39;101520.38;;;4.00;89.74
27984;BME280;15317;50.360;8.726;2023-02-10T14:15:55;101525.88;;;3.97;90.25
27984;BME280;15317;50.360;8.726;2023-02-10T14:19:58;101519.16;;;3.87;89.68
27984;BME280;15317;50.360;8.726;2023-02-10T14:24:02;101527.91;;;3.92;89.75
27984;BME280;15317;50.360;8.726;2023-02-10T14:28:06;101521.03;;;3.85;90.40
27984;BME280;15317;50.360;8.726;2023-02-10T14:32:18;101513.63;;;3.70;91.67
27984;BME280;15317;50.360;8.726;2023-02-10T14:36:20;101514.78;;;3.64;90.97
27984;BME280;15317;50.360;8.726;2023-02-10T14:40:24;101509.34;;;3.66;92.18
27984;BME280;15317;50.360;8.726;2023-02-10T14:44:32;101509.47;;;3.63;92.25
27984;BME280;15317;50.360;8.726;2023-02-10T14:48:36;101505.72;;;3.67;91.94
27984;BME280;15317;50.360;8.726;2023-02-10T14:52:46;101500.53;;;3.62;91.98
27984;BME280;15317;50.360;8.726;2023-02-10T14:56:50;101488.47;;;3.72;92.43
27984;BME280;15317;50.360;8.726;2023-02-10T15:00:56;101486.16;;;3.63;92.67
27984;BME280;15317;50.360;8.726;2023-02-10T15:05:05;101492.34;;;3.65;93.12
27984;BME280;15317;50.360;8.726;2023-02-10T15:09:13;101482.47;;;3.66;93.33
27984;BME280;15317;50.360;8.726;2023-02-10T15:13:19;101477.44;;;3.58;93.68
27984;BME280;15317;50.360;8.726;2023-02-10T15:17:24;101482.88;;;3.56;94.12
27984;BME280;15317;50.360;8.726;2023-02-10T15:21:32;101479.59;;;3.50;94.42
27984;BME280;15317;50.360;8.726;2023-02-10T15:25:35;101478.91;;;3.45;95.26
27984;BME280;15317;50.360;8.726;2023-02-10T15:29:38;101475.63;;;3.38;94.92
27984;BME280;15317;50.360;8.726;2023-02-10T15:33:51;101485.69;;;3.33;95.13
27984;BME280;15317;50.360;8.726;2023-02-10T15:37:59;101475.94;;;3.31;96.67
27984;BME280;15317;50.360;8.726;2023-02-10T15:42:17;101475.22;;;3.27;96.79
27984;BME280;15317;50.360;8.726;2023-02-10T15:46:22;101475.44;;;3.21;97.41
27984;BME280;15317;50.360;8.726;2023-02-10T15:50:25;101472.97;;;3.16;98.17
27984;BME280;15317;50.360;8.726;2023-02-10T15:54:28;101470.75;;;3.06;99.53
27984;BME280;15317;50.360;8.726;2023-02-10T15:58:30;101467.50;;;2.98;99.07
27984;BME280;15317;50.360;8.726;2023-02-10T16:02:32;101463.28;;;2.92;99.09
27984;BME280;15317;50.360;8.726;2023-02-10T16:06:35;101467.41;;;2.79;100.00
27984;BME280;15317;50.360;8.726;2023-02-10T16:10:39;101465.75;;;2.75;100.00
27984;BME280;15317;50.360;8.726;2023-02-10T16:14:41;101465.13;;;2.68;100.00
27984;BME280;15317;50.360;8.726;2023-02-10T16:18:43;101469.13;;;2.58;100.00
27984;BME280;15317;50.360;8.726;2023-02-10T16:22:45;101469.72;;;2.43;100.00
27984;BME280;15317;50.360;8.726;2023-02-10T16:26:49;101463.25;;;2.25;100.00
27984;BME280;15317;50.360;8.726;2023-02-10T16:30:51;101457.56;;;2.11;100.00
27984;BME280;15317;50.360;8.726;2023-02-10T16:34:53;101465.31;;;1.95;100.00
27984;BME280;15317;50.360;8.726;2023-02-10T16:38:56;101451.72;;;1.77;100.00
27984;BME280;15317;50.360;8.726;2023-02-10T16:42:59;101459.31;;;1.64;100.00
27984;BME280;15317;50.360;8.726;2023-02-10T16:47:01;101463.38;;;1.51;100.00
27984;BME280;15317;50.360;8.726;2023-02-10T16:51:03;101468.41;;;1.35;100.00
27984;BME280;15317;50.360;8.726;2023-02-10T16:55:06;101478.59;;;1.24;100.00
27984;BME280;15317;50.360;8.726;2023-02-10T16:59:13;101471.81;;;1.14;100.00
27984;BME280;15317;50.360;8.726;2023-02-10T17:03:15;101470.31;;;1.05;100.00
27984;BME280;15317;50.360;8.726;2023-02-10T17:07:17;101479.47;;;0.98;100.00
27984;BME280;15317;50.360;8.726;2023-02-10T17:11:19;101470.56;;;0.98;100.00
27984;BME280;15317;50.360;8.726;2023-02-10T17:15:23;101460.88;;;0.95;100.00
27984;BME280;15317;50.360;8.726;2023-02-10T17:19:25;101465.00;;;1.04;100.00
27984;BME280;15317;50.360;8.726;2023-02-10T17:23:28;101462.28;;;1.05;100.00
27984;BME280;15317;50.360;8.726;2023-02-10T17:27:30;101457.72;;;1.09;100.00
27984;BME280;15317;50.360;8.726;2023-02-10T17:31:33;101477.84;;;1.21;100.00
27984;BME280;15317;50.360;8.726;2023-02-10T17:35:35;101485.75;;;1.24;100.00
27984;BME280;15317;50.360;8.726;2023-02-10T17:39:38;101493.69;;;1.27;100.00
27984;BME280;15317;50.360;8.726;2023-02-10T17:43:46;101493.47;;;1.33;100.00
27984;BME280;15317;50.360;8.726;2023-02-10T17:47:50;101496.28;;;1.30;100.00
27984;BME280;15317;50.360;8.726;2023-02-10T17:51:52;101503.34;;;1.31;100.00
27984;BME280;15317;50.360;8.726;2023-02-10T17:55:54;101504.31;;;1.30;100.00
27984;BME280;15317;50.360;8.726;2023-02-10T17:59:56;101508.00;;;1.26;100.00
27984;BME280;15317;50.360;8.726;2023-02-10T18:04:00;101514.44;;;1.20;100.00
27984;BME280;15317;50.360;8.726;2023-02-10T18:08:02;101519.00;;;1.16;100.00
27984;BME280;15317;50.360;8.726;2023-02-10T18:12:04;101519.13;;;1.13;100.00
27984;BME280;15317;50.360;8.726;2023-02-10T18:16:09;101515.72;;;1.08;100.00
27984;BME280;15317;50.360;8.726;2023-02-10T18:20:12;101504.22;;;1.05;100.00
27984;BME280;15317;50.360;8.726;2023-02-10T18:24:14;101501.81;;;0.97;100.00
27984;BME280;15317;50.360;8.726;2023-02-10T18:28:16;101509.13;;;0.92;100.00
27984;BME280;15317;50.360;8.726;2023-02-10T18:32:18;101510.16;;;0.88;100.00
27984;BME280;15317;50.360;8.726;2023-02-10T18:36:22;101501.38;;;0.83;100.00
27984;BME280;15317;50.360;8.726;2023-02-10T18:40:24;101500.78;;;0.75;100.00
27984;BME280;15317;50.360;8.726;2023-02-10T18:44:26;101494.63;;;0.71;100.00
27984;BME280;15317;50.360;8.726;2023-02-10T18:48:27;101497.34;;;0.70;100.00
27984;BME280;15317;50.360;8.726;2023-02-10T18:52:31;101494.03;;;0.62;100.00
27984;BME280;15317;50.360;8.726;2023-02-10T18:56:33;101488.00;;;0.55;100.00
27984;BME280;15317;50.360;8.726;2023-02-10T19:00:35;101487.38;;;0.47;100.00
27984;BME280;15317;50.360;8.726;2023-02-10T19:04:37;101490.38;;;0.36;100.00
27984;BME280;15317;50.360;8.726;2023-02-10T19:08:40;101481.81;;;0.25;100.00
27984;BME280;15317;50.360;8.726;2023-02-10T19:12:43;101474.09;;;0.15;100.00
27984;BME280;15317;50.360;8.726;2023-02-10T19:16:45;101476.09;;;0.08;100.00
27984;BME280;15317;50.360;8.726;2023-02-10T19:20:47;101472.59;;;0.06;100.00
27984;BME280;15317;50.360;8.726;2023-02-10T19:24:50;101469.94;;;0.06;100.00
27984;BME280;15317;50.360;8.726;2023-02-10T19:28:52;101466.38;;;0.06;100.00
27984;BME280;15317;50.360;8.726;2023-02-10T19:32:56;101467.44;;;0.00;100.00
27984;BME280;15317;50.360;8.726;2023-02-10T19:36:59;101456.91;;;-0.06;100.00
27984;BME280;15317;50.360;8.726;2023-02-10T19:41:07;101455.41;;;-0.15;100.00
27984;BME280;15317;50.360;8.726;2023-02-10T19:45:09;101463.59;;;-0.21;100.00
27984;BME280;15317;50.360;8.726;2023-02-10T19:49:11;101456.72;;;-0.29;100.00
27984;BME280;15317;50.360;8.726;2023-02-10T19:53:15;101441.81;;;-0.38;100.00
27984;BME280;15317;50.360;8.726;2023-02-10T19:57:18;101448.25;;;-0.45;100.00
27984;BME280;15317;50.360;8.726;2023-02-10T20:01:21;101463.56;;;-0.52;100.00
27984;BME280;15317;50.360;8.726;2023-02-10T20:05:25;101470.91;;;-0.60;100.00
27984;BME280;15317;50.360;8.726;2023-02-10T20:09:27;101490.59;;;-0.64;100.00
27984;BME280;15317;50.360;8.726;2023-02-10T20:13:33;101488.84;;;-0.65;100.00
27984;BME280;15317;50.360;8.726;2023-02-10T20:17:35;101487.97;;;-0.65;100.00
27984;BME280;15317;50.360;8.726;2023-02-10T20:21:37;101488.06;;;-0.68;100.00
27984;BME280;15317;50.360;8.726;2023-02-10T20:25:39;101475.72;;;-0.74;100.00
27984;BME280;15317;50.360;8.726;2023-02-10T20:29:42;101474.03;;;-0.76;100.00
27984;BME280;15317;50.360;8.726;2023-02-10T20:33:45;101478.59;;;-0.82;100.00
27984;BME280;15317;50.360;8.726;2023-02-10T20:37:47;101478.72;;;-0.86;100.00
27984;BME280;15317;50.360;8.726;2023-02-10T20:41:49;101466.38;;;-0.90;100.00
27984;BME280;15317;50.360;8.726;2023-02-10T20:45:53;101461.22;;;-0.96;100.00
27984;BME280;15317;50.360;8.726;2023-02-10T20:49:55;101468.44;;;-1.01;100.00
27984;BME280;15317;50.360;8.726;2023-02-10T20:53:56;101461.44;;;-1.05;100.00
27984;BME280;15317;50.360;8.726;2023-02-10T20:57:59;101455.28;;;-1.09;100.00
27984;BME280;15317;50.360;8.726;2023-02-10T21:02:02;101439.34;;;-1.10;100.00
27984;BME280;15317;50.360;8.726;2023-02-10T21:06:06;101435.84;;;-1.12;100.00
27984;BME280;15317;50.360;8.726;2023-02-10T21:10:09;101438.50;;;-1.12;100.00
27984;BME280;15317;50.360;8.726;2023-02-10T21:14:11;101438.50;;;-1.12;100.00